sensor_id;sensor_type;location;lat;lon;timestamp;pressure;altitude;pressure_sealevel;temperature;humidity
8047;BME280;74083;42.516;23.358;2023-11-19T14:34:17;88288.41;;;5.59;57.21
8047;BME280;74083;42.516;23.358;2023-11-19T14:37:04;88278.06;;;5.51;56.56
8047;BME280;74083;42.516;23.358;2023-11-19T14:39:50;88264.31;;;5.44;57.26
8047;BME280;74083;42.516;23.358;2023-11-19T14:42:36;88266.09;;;5.42;57.31
8047;BME280;74083;42.516;23.358;2023-11-19T14:45:23;88272.78;;;5.42;57.67
8047;BME280;74083;42.516;23.358;2023-11-19T14:48:08;88267.88;;;5.40;57.44
8047;BME280;74083;42.516;23.358;2023-11-19T14:50:56;88266.28;;;5.68;58.96
8047;BME280;74083;42.516;23.358;2023-11-19T14:53:42;88254.59;;;6.64;61.61
8047;BME280;74083;42.516;23.358;2023-11-19T14:56:27;88275.91;;;6.30;58.57
8047;BME280;74083;42.516;23.358;2023-11-19T14:59:13;88271.91;;;6.54;61.66
8047;BME280;74083;42.516;23.358;2023-11-19T15:01:59;88269.03;;;7.00;62.60
8047;BME280;74083;42.516;23.358;2023-11-19T15:04:47;88256.41;;;6.62;59.31
8047;BME280;74083;42.516;23.358;2023-11-19T15:07:33;88262.09;;;6.37;58.12
8047;BME280;74083;42.516;23.358;2023-11-19T15:10:20;88267.50;;;6.17;57.43
8047;BME280;74083;42.516;23.358;2023-11-19T15:13:05;88261.47;;;6.07;57.42
8047;BME280;74083;42.516;23.358;2023-11-19T15:15:51;88272.81;;;5.98;57.17
8047;BME280;74083;42.516;23.358;2023-11-19T15:18:37;88264.06;;;5.91;57.44
8047;BME280;74083;42.516;23.358;2023-11-19T15:21:23;88266.19;;;5.83;57.34
8047;BME280;74083;42.516;23.358;2023-11-19T15:24:11;88275.56;;;5.80;57.81
8047;BME280;74083;42.516;23.358;2023-11-19T15:26:57;88269.13;;;5.76;57.49
8047;BME280;74083;42.516;23.358;2023-11-19T15:29:43;88282.19;;;5.81;57.81
8047;BME280;74083;42.516;23.358;2023-11-19T15:32:28;88282.94;;;7.30;69.14
8047;BME280;74083;42.516;23.358;2023-11-19T15:35:15;88296.88;;;8.48;64.44
8047;BME280;74083;42.516;23.358;2023-11-19T15:38:01;88280.03;;;8.97;60.81
8047;BME280;74083;42.516;23.358;2023-11-19T15:40:49;88273.44;;;9.42;59.34
8047;BME280;74083;42.516;23.358;2023-11-19T15:43:36;88265.56;;;9.82;58.68
8047;BME280;74083;42.516;23.358;2023-11-19T15:46:22;88262.66;;;10.21;56.40
8047;BME280;74083;42.516;23.358;2023-11-19T15:49:08;88251.97;;;10.51;56.36
8047;BME280;74083;42.516;23.358;2023-11-19T15:51:54;88257.44;;;10.67;54.45
8047;BME280;74083;42.516;23.358;2023-11-19T15:54:39;88246.06;;;11.27;53.09
8047;BME280;74083;42.516;23.358;2023-11-19T15:57:27;88257.47;;;12.04;51.23
8047;BME280;74083;42.516;23.358;2023-11-19T16:00:13;88259.88;;;12.66;49.70
8047;BME280;74083;42.516;23.358;2023-11-19T16:03:00;88261.84;;;12.92;48.54
8047;BME280;74083;42.516;23.358;2023-11-19T16:05:46;88261.19;;;13.00;48.57
8047;BME280;74083;42.516;23.358;2023-11-19T16:08:32;88248.22;;;12.34;49.06
8047;BME280;74083;42.516;23.358;2023-11-19T16:11:18;88251.59;;;11.20;49.47
8047;BME280;74083;42.516;23.358;2023-11-19T16:14:05;88273.53;;;10.33;49.79
8047;BME280;74083;42.516;23.358;2023-11-19T16:16:51;88271.00;;;9.65;50.29
8047;BME280;74083;42.516;23.358;2023-11-19T16:19:37;88275.53;;;9.14;50.94
8047;BME280;74083;42.516;23.358;2023-11-19T16:22:24;88283.34;;;8.74;51.03
8047;BME280;74083;42.516;23.358;2023-11-19T16:25:11;88275.38;;;8.44;51.38
8047;BME280;74083;42.516;23.358;2023-11-19T16:27:56;88277.94;;;8.19;51.70
8047;BME280;74083;42.516;23.358;2023-11-19T16:30:44;88272.03;;;7.95;52.24
8047;BME280;74083;42.516;23.358;2023-11-19T16:33:29;88284.88;;;7.77;52.69
8047;BME280;74083;42.516;23.358;2023-11-19T16:36:15;88276.94;;;7.58;53.02
8047;BME280;74083;42.516;23.358;2023-11-19T16:39:01;88265.41;;;7.43;53.09
8047;BME280;74083;42.516;23.358;2023-11-19T16:41:46;88276.31;;;7.29;53.21
8047;BME280;74083;42.516;23.358;2023-11-19T16:44:32;88261.97;;;7.19;53.35
8047;BME280;74083;42.516;23.358;2023-11-19T16:47:19;88270.09;;;7.10;53.48
8047;BME280;74083;42.516;23.358;2023-11-19T16:50:05;88268.16;;;7.01;53.49
8047;BME280;74083;42.516;23.358;2023-11-19T16:52:51;88275.34;;;6.93;54.08
8047;BME280;74083;42.516;23.358;2023-11-19T16:55:37;88294.03;;;6.87;54.48
8047;BME280;74083;42.516;23.358;2023-11-19T16:58:23;88269.50;;;6.80;54.46
8047;BME280;74083;42.516;23.358;2023-11-19T17:01:09;88287.72;;;6.82;54.09
8047;BME280;74083;42.516;23.358;2023-11-19T17:03:56;88280.25;;;7.84;66.62
8047;BME280;74083;42.516;23.358;2023-11-19T17:06:42;88296.88;;;8.48;66.58
8047;BME280;74083;42.516;23.358;2023-11-19T17:09:28;88283.69;;;8.81;63.79
8047;BME280;74083;42.516;23.358;2023-11-19T17:12:14;88293.09;;;8.30;59.92
8047;BME280;74083;42.516;23.358;2023-11-19T17:14:59;88325.81;;;7.90;58.04
8047;BME280;74083;42.516;23.358;2023-11-19T17:17:47;88326.69;;;7.64;56.91
8047;BME280;74083;42.516;23.358;2023-11-19T17:20:35;88322.03;;;7.46;56.49
8047;BME280;74083;42.516;23.358;2023-11-19T17:23:22;88307.09;;;7.31;56.33
8047;BME280;74083;42.516;23.358;2023-11-19T17:26:09;88300.25;;;7.21;55.93
8047;BME280;74083;42.516;23.358;2023-11-19T17:28:55;88296.81;;;7.09;56.16
8047;BME280;74083;42.516;23.358;2023-11-19T17:31:41;88303.09;;;7.02;56.17
8047;BME280;74083;42.516;23.358;2023-11-19T17:34:27;88301.97;;;6.94;56.26
8047;BME280;74083;42.516;23.358;2023-11-19T17:37:15;88301.66;;;6.86;56.27
8047;BME280;74083;42.516;23.358;2023-11-19T17:40:01;88298.72;;;6.79;55.89
8047;BME280;74083;42.516;23.358;2023-11-19T17:42:47;88287.22;;;7.16;63.50
8047;BME280;74083;42.516;23.358;2023-11-19T17:45:34;88293.00;;;7.04;60.65
8047;BME280;74083;42.516;23.358;2023-11-19T17:48:20;88283.44;;;6.96;58.90
8047;BME280;74083;42.516;23.358;2023-11-19T17:51:06;88298.09;;;6.90;58.19
8047;BME280;74083;42.516;23.358;2023-11-19T17:53:53;88284.22;;;6.84;57.99
8047;BME280;74083;42.516;23.358;2023-11-19T17:56:40;88294.53;;;6.80;57.79
8047;BME280;74083;42.516;23.358;2023-11-19T17:59:26;88292.19;;;7.03;60.56
8047;BME280;74083;42.516;23.358;2023-11-19T18:02:12;88288.75;;;6.92;59.01
8047;BME280;74083;42.516;23.358;2023-11-19T18:04:58;88290.03;;;6.85;58.40
8047;BME280;74083;42.516;23.358;2023-11-19T18:07:43;88285.19;;;7.08;61.66
8047;BME280;74083;42.516;23.358;2023-11-19T18:10:31;88293.38;;;6.98;59.34
8047;BME280;74083;42.516;23.358;2023-11-19T18:13:17;88288.94;;;6.89;58.26
8047;BME280;74083;42.516;23.358;2023-11-19T18:16:03;88284.31;;;6.83;57.88
8047;BME280;74083;42.516;23.358;2023-11-19T18:18:49;88293.22;;;7.13;63.48
8047;BME280;74083;42.516;23.358;2023-11-19T18:21:35;88293.28;;;8.02;67.95
8047;BME280;74083;42.516;23.358;2023-11-19T18:24:21;88286.78;;;7.86;62.39
8047;BME280;74083;42.516;23.358;2023-11-19T18:27:09;88294.50;;;7.58;60.19
8047;BME280;74083;42.516;23.358;2023-11-19T18:29:55;88290.84;;;7.37;58.88
8047;BME280;74083;42.516;23.358;2023-11-19T18:32:41;88296.88;;;7.22;58.07
8047;BME280;74083;42.516;23.358;2023-11-19T18:35:28;88304.03;;;7.14;57.73
8047;BME280;74083;42.516;23.358;2023-11-19T18:38:14;88287.00;;;7.06;57.87
8047;BME280;74083;42.516;23.358;2023-11-19T18:41:00;88295.78;;;6.99;57.50
8047;BME280;74083;42.516;23.358;2023-11-19T18:43:47;88307.00;;;6.94;57.69
8047;BME280;74083;42.516;23.358;2023-11-19T18:46:32;88285.56;;;6.90;57.48
8047;BME280;74083;42.516;23.358;2023-11-19T18:49:18;88290.75;;;6.87;57.48
8047;BME280;74083;42.516;23.358;2023-11-19T18:52:04;88289.31;;;6.83;57.08
8047;BME280;74083;42.516;23.358;2023-11-19T18:54:51;88297.91;;;6.78;57.24
8047;BME280;74083;42.516;23.358;2023-11-19T18:57:38;88311.34;;;6.78;57.30
8047;BME280;74083;42.516;23.358;2023-11-19T19:00:25;88299.03;;;6.74;57.22
8047;BME280;74083;42.516;23.358;2023-11-19T19:03:11;88299.91;;;6.73;57.32
8047;BME280;74083;42.516;23.358;2023-11-19T19:05:59;88297.88;;;6.66;57.26
8047;BME280;74083;42.516;23.358;2023-11-19T19:08:45;88309.31;;;6.70;57.29
8047;BME280;74083;42.516;23.358;2023-11-19T19:11:34;88301.91;;;6.68;57.42
8047;BME280;74083;42.516;23.358;2023-11-19T19:14:20;88312.09;;;6.65;57.41
8047;BME280;74083;42.516;23.358;2023-11-19T19:17:07;88313.88;;;6.63;57.18
8047;BME280;74083;42.516;23.358;2023-11-19T19:19:55;88312.19;;;6.64;57.02
8047;BME280;74083;42.516;23.358;2023-11-19T19:22:41;88310.59;;;6.63;56.82
8047;BME280;74083;42.516;23.358;2023-11-19T19:25:26;88313.09;;;6.63;57.03
8047;BME280;74083;42.516;23.358;2023-11-19T19:28:13;88315.59;;;6.63;57.13
8047;BME280;74083;42.516;23.358;2023-11-19T19:30:59;88299.84;;;6.61;57.30
8047;BME280;74083;42.516;23.358;2023-11-19T19:33:46;88304.06;;;6.60;57.06
8047;BME280;74083;42.516;23.358;2023-11-19T19:36:36;88284.75;;;6.62;56.22
8047;BME280;74083;42.516;23.358;2023-11-19T19:39:22;88305.28;;;7.21;59.20
8047;BME280;74083;42.516;23.358;2023-11-19T19:42:08;88309.09;;;7.26;58.62
8047;BME280;74083;42.516;23.358;2023-11-19T19:44:54;88292.69;;;7.08;57.17
8047;BME280;74083;42.516;23.358;2023-11-19T19:47:40;88302.41;;;7.00;56.10
8047;BME280;74083;42.516;23.358;2023-11-19T19:50:27;88307.91;;;6.93;55.76
8047;BME280;74083;42.516;23.358;2023-11-19T19:53:12;88313.00;;;6.91;55.41
8047;BME280;74083;42.516;23.358;2023-11-19T19:55:58;88292.25;;;6.89;55.78
8047;BME280;74083;42.516;23.358;2023-11-19T19:58:45;88308.88;;;6.90;55.75
8047;BME280;74083;42.516;23.358;2023-11-19T20:01:31;88308.97;;;6.89;55.44
8047;BME280;74083;42.516;23.358;2023-11-19T20:04:16;88303.28;;;6.87;55.46
8047;BME280;74083;42.516;23.358;2023-11-19T20:07:04;88300.03;;;6.85;55.43
8047;BME280;74083;42.516;23.358;2023-11-19T20:09:50;88297.72;;;6.82;55.24
8047;BME280;74083;42.516;23.358;2023-11-19T20:12:36;88304.34;;;6.83;54.83
8047;BME280;74083;42.516;23.358;2023-11-19T20:15:22;88293.63;;;6.81;54.60
8047;BME280;74083;42.516;23.358;2023-11-19T20:18:08;88295.22;;;6.82;54.69
8047;BME280;74083;42.516;23.358;2023-11-19T20:20:56;88298.72;;;6.79;54.65
8047;BME280;74083;42.516;23.358;2023-11-19T20:23:43;88306.16;;;6.81;54.33
8047;BME280;74083;42.516;23.358;2023-11-19T20:26:30;88294.34;;;6.83;54.85
8047;BME280;74083;42.516;23.358;2023-11-19T20:29:16;88266.56;;;9.79;55.52
8047;BME280;74083;42.516;23.358;2023-11-19T20:32:02;88270.84;;;12.15;50.75
8047;BME280;74083;42.516;23.358;2023-11-19T20:34:48;88251.16;;;13.48;48.42
8047;BME280;74083;42.516;23.358;2023-11-19T20:37:35;88259.72;;;13.07;47.88
8047;BME280;74083;42.516;23.358;2023-11-19T20:40:23;88255.97;;;11.60;47.16
8047;BME280;74083;42.516;23.358;2023-11-19T20:43:11;88261.81;;;10.54;47.37
8047;BME280;74083;42.516;23.358;2023-11-19T20:45:57;88264.75;;;9.81;48.22
8047;BME280;74083;42.516;23.358;2023-11-19T20:48:44;88264.06;;;9.33;49.07
8047;BME280;74083;42.516;23.358;2023-11-19T20:51:30;88271.78;;;8.95;49.82
8047;BME280;74083;42.516;23.358;2023-11-19T20:54:16;88263.38;;;8.60;49.80
8047;BME280;74083;42.516;23.358;2023-11-19T20:57:03;88257.56;;;8.36;50.32
8047;BME280;74083;42.516;23.358;2023-11-19T20:59:49;88271.31;;;8.18;51.29
8047;BME280;74083;42.516;23.358;2023-11-19T21:02:35;88269.94;;;8.01;51.82
8047;BME280;74083;42.516;23.358;2023-11-19T21:05:21;88270.00;;;7.87;52.31
8047;BME280;74083;42.516;23.358;2023-11-19T21:08:07;88260.09;;;7.73;52.92
8047;BME280;74083;42.516;23.358;2023-11-19T21:10:53;88265.91;;;7.61;53.09
8047;BME280;74083;42.516;23.358;2023-11-19T21:13:40;88260.00;;;7.49;52.77
8047;BME280;74083;42.516;23.358;2023-11-19T21:16:26;88263.09;;;7.40;53.36
8047;BME280;74083;42.516;23.358;2023-11-19T21:19:13;88279.31;;;7.34;53.34
8047;BME280;74083;42.516;23.358;2023-11-19T21:21:58;88267.19;;;7.28;53.51
8047;BME280;74083;42.516;23.358;2023-11-19T21:24:44;88261.06;;;7.20;53.93
8047;BME280;74083;42.516;23.358;2023-11-19T21:27:31;88284.72;;;7.16;53.67
8047;BME280;74083;42.516;23.358;2023-11-19T21:30:19;88289.00;;;7.14;53.94
8047;BME280;74083;42.516;23.358;2023-11-19T21:33:05;88273.59;;;7.07;54.39
8047;BME280;74083;42.516;23.358;2023-11-19T21:35:52;88279.75;;;7.02;54.12
8047;BME280;74083;42.516;23.358;2023-11-19T21:38:38;88276.47;;;7.01;54.22
8047;BME280;74083;42.516;23.358;2023-11-19T21:41:24;88265.72;;;6.99;54.34
8047;BME280;74083;42.516;23.358;2023-11-19T21:44:10;88263.53;;;6.95;54.53
8047;BME280;74083;42.516;23.358;2023-11-19T21:46:57;88252.91;;;6.91;54.52
8047;BME280;74083;42.516;23.358;2023-11-19T21:49:42;88258.00;;;6.90;54.28
8047;BME280;74083;42.516;23.358;2023-11-19T21:52:28;88248.88;;;6.89;54.73
8047;BME280;74083;42.516;23.358;2023-11-19T21:55:14;88243.00;;;6.90;54.94
8047;BME280;74083;42.516;23.358;2023-11-19T21:58:00;88227.25;;;6.88;55.10
8047;BME280;74083;42.516;23.358;2023-11-19T22:00:46;88240.50;;;6.90;55.12
8047;BME280;74083;42.516;23.358;2023-11-19T22:03:33;88237.25;;;6.88;55.35
8047;BME280;74083;42.516;23.358;2023-11-19T22:06:20;88228.25;;;6.85;55.03
8047;BME280;74083;42.516;23.358;2023-11-19T22:09:06;88225.13;;;6.82;54.81
8047;BME280;74083;42.516;23.358;2023-11-19T22:11:54;88237.81;;;6.78;55.08
8047;BME280;74083;42.516;23.358;2023-11-19T22:14:40;88238.63;;;6.79;55.36
8047;BME280;74083;42.516;23.358;2023-11-19T22:17:26;88236.13;;;6.79;55.26
8047;BME280;74083;42.516;23.358;2023-11-19T22:20:13;88235.31;;;6.78;55.02
8047;BME280;74083;42.516;23.358;2023-11-19T22:22:59;88237.06;;;6.78;55.44
8047;BME280;74083;42.516;23.358;2023-11-19T22:25:45;88236.44;;;6.74;55.08
8047;BME280;74083;42.516;23.358;2023-11-19T22:28:31;88242.31;;;6.73;54.97
8047;BME280;74083;42.516;23.358;2023-11-19T22:31:20;88238.03;;;6.75;55.12
8047;BME280;74083;42.516;23.358;2023-11-19T22:34:06;88245.66;;;6.74;55.45
8047;BME280;74083;42.516;23.358;2023-11-19T22:36:54;88230.81;;;6.71;55.35
8047;BME280;74083;42.516;23.358;2023-11-19T22:39:40;88220.19;;;6.67;54.79
8047;BME280;74083;42.516;23.358;2023-11-19T22:42:25;88228.59;;;6.66;54.37
8047;BME280;74083;42.516;23.358;2023-11-19T22:45:11;88225.88;;;6.69;54.42
8047;BME280;74083;42.516;23.358;2023-11-19T22:47:57;88220.00;;;6.70;55.14
8047;BME280;74083;42.516;23.358;2023-11-19T22:50:43;88230.19;;;6.67;54.57
8047;BME280;74083;42.516;23.358;2023-11-19T22:53:31;88222.69;;;6.67;54.85
8047;BME280;74083;42.516;23.358;2023-11-19T22:56:16;88222.78;;;6.66;54.57
8047;BME280;74083;42.516;23.358;2023-11-19T22:59:02;88226.25;;;6.63;54.12
8047;BME280;74083;42.516;23.358;2023-11-19T23:01:48;88226.56;;;6.59;53.64
8047;BME280;74083;42.516;23.358;2023-11-19T23:04:34;88231.88;;;6.54;53.35
8047;BME280;74083;42.516;23.358;2023-11-19T23:07:20;88228.81;;;6.49;52.90
8047;BME280;74083;42.516;23.358;2023-11-19T23:10:08;88237.94;;;6.50;52.64
8047;BME280;74083;42.516;23.358;2023-11-19T23:12:54;88229.56;;;6.51;53.11
8047;BME280;74083;42.516;23.358;2023-11-19T23:15:41;88245.97;;;6.55;52.95
8047;BME280;74083;42.516;23.358;2023-11-19T23:18:27;88245.09;;;6.56;53.54
8047;BME280;74083;42.516;23.358;2023-11-19T23:21:13;88252.41;;;6.59;53.48
8047;BME280;74083;42.516;23.358;2023-11-19T23:24:02;88269.91;;;6.59;53.58
8047;BME280;74083;42.516;23.358;2023-11-19T23:26:50;88262.31;;;6.61;53.78
8047;BME280;74083;42.516;23.358;2023-11-19T23:29:35;88258.03;;;6.63;54.02
8047;BME280;74083;42.516;23.358;2023-11-19T23:32:21;88258.81;;;6.63;54.10
8047;BME280;74083;42.516;23.358;2023-11-19T23:35:08;88254.53;;;6.65;53.85
8047;BME280;74083;42.516;23.358;2023-11-19T23:37:54;88270.25;;;6.67;53.91
8047;BME280;74083;42.516;23.358;2023-11-19T23:40:40;88263.63;;;6.66;54.21
8047;BME280;74083;42.516;23.358;2023-11-19T23:43:28;88272.06;;;6.65;54.09
8047;BME280;74083;42.516;23.358;2023-11-19T23:46:14;88247.22;;;6.62;53.69
8047;BME280;74083;42.516;23.358;2023-11-19T23:49:00;88249.19;;;6.57;53.66
8047;BME280;74083;42.516;23.358;2023-11-19T23:51:47;88263.13;;;6.61;53.66
8047;BME280;74083;42.516;23.358;2023-11-19T23:54:33;88259.03;;;6.60;53.81
8047;BME280;74083;42.516;23.358;2023-11-19T23:57:18;88253.41;;;6.57;53.34
